Terminal Aerodrome Forecast
Issued by NWS Jackson, KY

Home | Current Version | Previous Version | Text Only | Print | Product List | Glossary On
Versions: 1 2 3 4 5 6 7 8 9 10 11 12 13 14 15 16 17 18 19 20 21 22 23
000
FTUS43 KJKL 282328
TAFJKL
TAF
KJKL 282328Z 2900/2924 VRB03KT P6SM FEW060
     FM291000 VRB03KT P6SM BKN110
     FM291400 22005KT P6SM VCSH BKN060
     FM291800 22006G17KT P6SM VCTS SCT045CB BKN120=

USA.gov is the U.S. government's official web portal to all federal, state and local government web resources and services.